createdAt,value
2022-10-04T00:02:28.165Z,8.60
2022-10-04T00:05:03.198Z,8.77
2022-10-04T00:07:35.327Z,8.60
2022-10-04T00:10:08.818Z,7.87
2022-10-04T00:12:39.877Z,7.70
2022-10-04T00:15:20.043Z,7.77
2022-10-04T00:18:01.943Z,7.70
2022-10-04T00:20:57.860Z,7.10
2022-10-04T00:23:41.792Z,8.17
2022-10-04T00:26:15.992Z,8.30
2022-10-04T00:28:45.784Z,7.50
2022-10-04T00:31:19.645Z,8.60
2022-10-04T00:33:51.292Z,7.27
2022-10-04T00:36:46.966Z,7.80
2022-10-04T00:39:26.080Z,7.33
2022-10-04T00:42:02.644Z,7.50
2022-10-04T00:44:38.077Z,6.90
2022-10-04T00:47:19.929Z,7.03
2022-10-04T00:49:54.385Z,7.30
2022-10-04T00:52:26.305Z,7.13
2022-10-04T00:54:59.011Z,7.47
2022-10-04T00:57:32.151Z,7.53
2022-10-04T01:00:03.983Z,7.90
2022-10-04T01:02:39.150Z,6.53
2022-10-04T01:05:11.872Z,8.53
2022-10-04T01:07:43.464Z,7.73
2022-10-04T01:10:16.026Z,7.33
2022-10-04T01:12:50.314Z,6.93
2022-10-04T01:15:28.449Z,6.83
2022-10-04T01:18:11.203Z,7.07
2022-10-04T01:20:49.340Z,7.33
2022-10-04T01:23:33.970Z,6.43
2022-10-04T01:26:02.675Z,6.17
2022-10-04T01:28:30.375Z,7.37
2022-10-04T01:30:58.187Z,6.83
2022-10-04T01:33:26.244Z,7.27
2022-10-04T01:35:54.006Z,7.63
2022-10-04T01:38:21.770Z,6.63
2022-10-04T01:40:56.458Z,6.63
2022-10-04T01:43:30.122Z,7.10
2022-10-04T01:46:02.273Z,6.77
2022-10-04T01:48:37.599Z,7.33
2022-10-04T01:51:14.171Z,6.97
2022-10-04T01:53:48.609Z,6.80
2022-10-04T01:56:21.491Z,7.13
2022-10-04T01:58:52.309Z,6.63
2022-10-04T02:01:27.761Z,6.93
2022-10-04T02:04:00.902Z,7.10
2022-10-04T02:06:30.002Z,6.73
2022-10-04T02:08:59.211Z,6.57
2022-10-04T02:11:31.213Z,7.23
2022-10-04T02:13:59.426Z,7.23
2022-10-04T02:16:27.898Z,6.83
2022-10-04T02:18:56.473Z,6.43
2022-10-04T02:21:25.040Z,6.47
2022-10-04T02:23:53.418Z,6.23
2022-10-04T02:26:21.412Z,6.57
2022-10-04T02:28:50.772Z,6.17
2022-10-04T02:31:40.747Z,6.93
2022-10-04T02:34:09.256Z,6.67
2022-10-04T02:36:39.503Z,7.27
2022-10-04T02:39:14.142Z,7.03
2022-10-04T02:41:45.592Z,7.23
2022-10-04T02:44:18.799Z,6.77
2022-10-04T02:46:51.683Z,6.03
2022-10-04T02:49:27.545Z,6.60
2022-10-04T02:52:02.297Z,6.60
2022-10-04T02:54:37.101Z,7.57
2022-10-04T02:57:05.827Z,6.60
2022-10-04T02:59:35.618Z,6.00
2022-10-04T03:02:03.895Z,6.87
2022-10-04T03:04:34.688Z,6.40
2022-10-04T03:07:06.072Z,6.53
2022-10-04T03:09:37.058Z,6.97
2022-10-04T03:12:06.058Z,6.90
2022-10-04T03:14:35.430Z,6.63
2022-10-04T03:17:04.907Z,6.93
2022-10-04T03:19:34.384Z,7.87
2022-10-04T03:22:05.615Z,7.20
2022-10-04T03:24:36.255Z,7.13
2022-10-04T03:27:07.523Z,6.80
2022-10-04T03:29:40.882Z,6.93
2022-10-04T03:32:09.865Z,6.90
2022-10-04T03:34:39.714Z,6.57
2022-10-04T03:37:10.471Z,7.07
2022-10-04T03:39:42.359Z,6.53
2022-10-04T03:42:14.662Z,6.50
2022-10-04T03:44:45.812Z,6.87
2022-10-04T03:47:17.118Z,5.73
2022-10-04T03:49:50.635Z,7.13
2022-10-04T03:52:23.076Z,7.27
2022-10-04T03:54:53.577Z,8.13
2022-10-04T03:57:21.503Z,7.10
2022-10-04T03:59:51.023Z,8.07
2022-10-04T04:02:27.119Z,7.63
2022-10-04T04:05:04.940Z,6.60
2022-10-04T04:07:39.562Z,8.00
2022-10-04T04:10:19.335Z,6.93
2022-10-04T04:12:55.018Z,6.73
2022-10-04T04:15:28.577Z,6.53
2022-10-04T04:17:56.753Z,6.60
2022-10-04T04:20:27.228Z,7.00
2022-10-04T04:23:12.743Z,6.07
2022-10-04T04:25:43.400Z,6.20
2022-10-04T04:28:25.735Z,6.90
2022-10-04T04:30:59.156Z,7.37
2022-10-04T04:33:33.897Z,6.87
2022-10-04T04:36:06.991Z,8.20
2022-10-04T04:38:36.475Z,7.57
2022-10-04T04:41:11.305Z,7.77
2022-10-04T04:43:44.561Z,7.90
2022-10-04T04:46:27.530Z,8.20
2022-10-04T04:49:01.835Z,7.90
2022-10-04T04:51:31.448Z,7.90
2022-10-04T04:54:01.914Z,8.17
2022-10-04T04:56:31.492Z,7.50
2022-10-04T04:59:03.938Z,7.80
2022-10-04T05:01:36.224Z,8.17
2022-10-04T05:04:06.694Z,8.30
2022-10-04T05:06:36.389Z,7.80
2022-10-04T05:09:05.315Z,8.03
2022-10-04T05:11:35.588Z,7.50
2022-10-04T05:14:06.832Z,7.73
2022-10-04T05:16:41.069Z,7.03
2022-10-04T05:19:16.198Z,7.63
2022-10-04T05:21:47.700Z,6.90
2022-10-04T05:24:23.259Z,8.17
2022-10-04T05:26:52.952Z,7.57
2022-10-04T05:29:23.935Z,8.40
2022-10-04T05:32:03.381Z,9.00
2022-10-04T05:34:36.966Z,8.47
2022-10-04T05:37:22.290Z,8.27
2022-10-04T05:40:01.914Z,8.27
2022-10-04T05:42:38.529Z,8.80
2022-10-04T05:45:17.272Z,8.97
2022-10-04T05:47:47.831Z,8.60
2022-10-04T05:50:20.065Z,7.73
2022-10-04T05:52:50.967Z,7.57
2022-10-04T05:55:26.173Z,9.27
2022-10-04T05:58:19.758Z,7.83
2022-10-04T06:01:05.086Z,10.03
2022-10-04T06:03:46.547Z,10.07
2022-10-04T06:06:21.368Z,9.90
2022-10-04T06:09:09.004Z,9.63
2022-10-04T06:11:54.214Z,9.27
2022-10-04T06:14:47.696Z,8.90
2022-10-04T06:17:49.940Z,8.33
2022-10-04T06:20:50.583Z,8.60
2022-10-04T06:23:21.085Z,8.40
2022-10-04T06:25:51.944Z,9.37
2022-10-04T06:28:25.077Z,8.53
2022-10-04T06:31:25.391Z,9.63
2022-10-04T06:34:19.216Z,9.40
2022-10-04T06:37:19.878Z,7.97
2022-10-04T06:40:02.349Z,8.47
2022-10-04T06:42:48.624Z,7.87
2022-10-04T06:45:51.905Z,8.87
2022-10-04T06:48:39.794Z,8.90
2022-10-04T06:51:17.088Z,8.90
2022-10-04T06:53:58.329Z,9.10
2022-10-04T06:56:35.122Z,10.13
2022-10-04T06:59:23.066Z,8.73
2022-10-04T07:01:53.092Z,9.47
2022-10-04T07:04:45.001Z,9.30
2022-10-04T07:07:27.037Z,8.23
2022-10-04T07:10:02.558Z,9.17
2022-10-04T07:12:32.917Z,9.57
2022-10-04T07:15:04.878Z,8.57
2022-10-04T07:17:40.910Z,8.43
2022-10-04T07:20:21.372Z,7.23
2022-10-04T07:22:56.417Z,7.67
2022-10-04T07:25:30.493Z,8.00
2022-10-04T07:28:22.142Z,7.87
2022-10-04T07:30:56.740Z,7.27
2022-10-04T07:33:28.725Z,8.23
2022-10-04T07:36:04.529Z,7.93
2022-10-04T07:38:35.168Z,8.17
2022-10-04T07:41:09.290Z,8.33
2022-10-04T07:43:49.095Z,9.03
2022-10-04T07:46:24.726Z,8.27
2022-10-04T07:48:52.505Z,9.80
2022-10-04T07:51:30.871Z,8.80
2022-10-04T07:54:03.622Z,8.63
2022-10-04T07:56:42.115Z,10.20
2022-10-04T07:59:24.115Z,10.93
2022-10-04T08:02:01.916Z,14.80
2022-10-04T08:04:40.551Z,16.07
2022-10-04T08:07:18.683Z,18.07
2022-10-04T08:10:02.552Z,20.40
2022-10-04T08:12:44.242Z,19.53
2022-10-04T08:15:34.746Z,18.17
2022-10-04T08:18:11.972Z,20.27
2022-10-04T08:20:49.135Z,18.97
2022-10-04T08:23:55.667Z,19.90
2022-10-04T08:26:46.178Z,19.27
2022-10-04T08:29:44.326Z,18.53
2022-10-04T08:32:24.184Z,16.80
2022-10-04T08:35:17.063Z,19.17
2022-10-04T08:38:00.098Z,17.33
2022-10-04T08:40:52.967Z,18.83
2022-10-04T08:43:44.320Z,19.37
2022-10-04T08:46:36.417Z,16.87
2022-10-04T08:49:47.132Z,21.67
2022-10-04T08:52:38.302Z,20.57
2022-10-04T08:55:41.050Z,18.57
2022-10-04T08:58:34.122Z,18.73
2022-10-04T09:01:20.350Z,18.53
2022-10-04T09:04:23.784Z,18.97
2022-10-04T09:07:04.791Z,17.57
2022-10-04T09:09:57.675Z,17.93
2022-10-04T09:12:59.428Z,18.83
2022-10-04T09:15:44.363Z,18.63
2022-10-04T09:18:45.611Z,21.03
2022-10-04T09:21:26.865Z,19.10
2022-10-04T09:24:48.044Z,20.70
2022-10-04T09:27:55.727Z,20.37
2022-10-04T09:30:25.386Z,20.87
2022-10-04T09:33:32.538Z,19.93
2022-10-04T09:36:22.907Z,19.27
2022-10-04T09:39:29.523Z,17.93
2022-10-04T09:42:33.561Z,16.77
2022-10-04T09:45:44.933Z,17.43
2022-10-04T09:48:30.201Z,18.40
2022-10-04T09:51:31.852Z,17.90
2022-10-04T09:54:19.860Z,16.83
2022-10-04T09:57:03.359Z,16.20
2022-10-04T09:59:58.874Z,15.57
2022-10-04T10:02:56.505Z,15.07
2022-10-04T10:05:46.746Z,14.70
2022-10-04T10:08:28.236Z,15.93
2022-10-04T10:11:34.105Z,15.20
2022-10-04T10:14:26.973Z,14.57
2022-10-04T10:17:05.933Z,15.37
2022-10-04T10:20:03.458Z,15.57
2022-10-04T10:22:53.930Z,15.90
2022-10-04T10:25:40.874Z,15.83
2022-10-04T10:28:34.226Z,16.67
2022-10-04T10:31:18.689Z,17.13
2022-10-04T10:34:07.665Z,17.20
2022-10-04T10:36:49.943Z,18.10
2022-10-04T10:39:54.099Z,16.97
2022-10-04T10:42:47.726Z,18.37
2022-10-04T10:45:29.273Z,15.43
2022-10-04T10:48:01.890Z,17.23
2022-10-04T10:51:00.604Z,18.83
2022-10-04T10:53:57.166Z,17.67
2022-10-04T10:56:37.897Z,16.83
2022-10-04T10:59:27.250Z,17.30
2022-10-04T11:02:10.262Z,17.53
2022-10-04T11:04:58.349Z,19.63
2022-10-04T11:07:51.663Z,17.80
2022-10-04T11:10:59.592Z,18.00
2022-10-04T11:13:50.665Z,16.97
2022-10-04T11:16:47.502Z,17.00
2022-10-04T11:19:52.724Z,16.13
2022-10-04T11:23:02.111Z,13.67
2022-10-04T11:25:57.450Z,12.80
2022-10-04T11:28:37.085Z,12.10
2022-10-04T11:31:40.515Z,10.20
2022-10-04T11:34:27.036Z,10.53
2022-10-04T11:37:08.091Z,11.02
2022-10-04T11:40:04.199Z,10.80
2022-10-04T11:42:49.275Z,9.40
2022-10-04T11:45:44.763Z,10.27
2022-10-04T11:48:26.606Z,9.88
2022-10-04T11:51:19.425Z,10.48
2022-10-04T11:54:14.818Z,10.63
2022-10-04T11:56:56.613Z,10.13
2022-10-04T11:59:39.225Z,10.50
2022-10-04T12:02:35.716Z,11.60
2022-10-04T12:05:24.412Z,10.20
2022-10-04T12:08:10.850Z,11.57
2022-10-04T12:10:40.862Z,10.80
2022-10-04T12:13:37.964Z,10.23
2022-10-04T12:16:38.314Z,10.97
2022-10-04T12:19:40.519Z,9.73
2022-10-04T12:22:30.085Z,9.77
2022-10-04T12:25:28.529Z,9.23
2022-10-04T12:28:25.604Z,8.70
2022-10-04T12:31:12.243Z,8.87
2022-10-04T12:33:50.188Z,8.70
2022-10-04T12:36:34.097Z,8.40
2022-10-04T12:39:31.516Z,6.57
2022-10-04T12:42:12.555Z,7.20
2022-10-04T12:44:53.414Z,7.53
2022-10-04T12:47:41.695Z,7.23
2022-10-04T12:50:22.197Z,6.80
2022-10-04T12:52:55.535Z,6.83
2022-10-04T12:55:47.317Z,6.73
2022-10-04T12:58:22.970Z,7.13
2022-10-04T13:00:58.855Z,6.87
2022-10-04T13:03:41.161Z,6.40
2022-10-04T13:06:15.942Z,6.80
2022-10-04T13:08:56.500Z,6.63
2022-10-04T13:11:47.202Z,5.83
2022-10-04T13:14:46.797Z,5.17
2022-10-04T13:17:34.511Z,4.80
2022-10-04T13:20:21.034Z,4.80
2022-10-04T13:22:57.644Z,5.23
2022-10-04T13:25:53.428Z,5.27
2022-10-04T13:28:30.846Z,4.53
2022-10-04T13:31:06.820Z,4.90
2022-10-04T13:33:44.458Z,4.77
2022-10-04T13:36:19.244Z,4.53
2022-10-04T13:39:29.683Z,4.40
2022-10-04T13:42:17.615Z,3.73
2022-10-04T13:45:07.428Z,5.03
2022-10-04T13:47:48.944Z,5.63
2022-10-04T13:50:32.097Z,4.30
2022-10-04T13:53:30.557Z,4.07
2022-10-04T13:56:21.792Z,4.07
2022-10-04T13:58:58.488Z,4.13
2022-10-04T14:01:50.195Z,4.17
2022-10-04T14:04:34.774Z,3.83
2022-10-04T14:07:35.179Z,4.00
2022-10-04T14:10:18.344Z,4.30
2022-10-04T14:13:11.985Z,4.10
2022-10-04T14:15:59.240Z,3.83
2022-10-04T14:18:57.937Z,3.60
2022-10-04T14:21:54.662Z,3.27
2022-10-04T14:24:58.338Z,4.17
2022-10-04T14:27:57.095Z,3.53
2022-10-04T14:30:30.704Z,3.87
2022-10-04T14:33:40.300Z,3.50
2022-10-04T14:36:40.880Z,4.10
2022-10-04T14:39:35.805Z,4.17
2022-10-04T14:42:35.010Z,4.03
2022-10-04T14:45:25.126Z,3.80
2022-10-04T14:48:19.629Z,4.13
2022-10-04T14:50:59.351Z,3.47
2022-10-04T14:53:37.262Z,3.60
2022-10-04T14:56:28.418Z,3.67
2022-10-04T14:59:09.184Z,3.70
2022-10-04T15:01:45.574Z,3.60
2022-10-04T15:04:28.945Z,3.60
2022-10-04T15:07:00.233Z,3.40
2022-10-04T15:09:52.167Z,3.57
2022-10-04T15:12:58.558Z,3.73
2022-10-04T15:15:36.434Z,3.30
2022-10-04T15:18:10.768Z,3.03
2022-10-04T15:20:51.536Z,3.10
2022-10-04T15:23:32.043Z,3.50
2022-10-04T15:26:13.795Z,3.70
2022-10-04T15:29:01.623Z,3.23
2022-10-04T15:31:36.246Z,3.40
2022-10-04T15:34:12.684Z,3.33
2022-10-04T15:37:04.199Z,3.00
2022-10-04T15:39:58.174Z,3.23
2022-10-04T15:42:30.770Z,3.10
2022-10-04T15:45:26.949Z,3.17
2022-10-04T15:48:06.311Z,3.03
2022-10-04T15:50:38.364Z,3.70
2022-10-04T15:53:30.504Z,3.57
2022-10-04T15:56:30.391Z,3.47
2022-10-04T15:59:32.296Z,3.70
2022-10-04T16:02:36.773Z,3.73
2022-10-04T16:05:15.574Z,4.27
2022-10-04T16:08:01.473Z,4.80
2022-10-04T16:10:48.172Z,3.87
2022-10-04T16:13:37.946Z,4.13
2022-10-04T16:16:41.010Z,4.17
2022-10-04T16:19:17.796Z,4.83
2022-10-04T16:21:51.869Z,4.17
2022-10-04T16:24:51.315Z,4.07
2022-10-04T16:27:46.013Z,4.20
2022-10-04T16:30:28.147Z,4.30
2022-10-04T16:33:13.681Z,3.93
2022-10-04T16:35:44.450Z,3.97
2022-10-04T16:38:25.458Z,4.77
2022-10-04T16:41:08.717Z,4.37
2022-10-04T16:43:41.087Z,5.70
2022-10-04T16:46:23.057Z,4.80
2022-10-04T16:48:57.125Z,6.00
2022-10-04T16:51:55.053Z,5.50
2022-10-04T16:54:42.877Z,5.50
2022-10-04T16:57:22.856Z,5.60
2022-10-04T16:59:54.103Z,4.90
2022-10-04T17:02:38.025Z,5.40
2022-10-04T17:05:47.189Z,5.57
2022-10-04T17:08:30.020Z,5.10
2022-10-04T17:11:39.167Z,4.53
2022-10-04T17:14:33.632Z,4.53
2022-10-04T17:17:07.338Z,4.77
2022-10-04T17:19:42.385Z,4.67
2022-10-04T17:22:25.191Z,5.70
2022-10-04T17:25:02.414Z,5.53
2022-10-04T17:27:47.194Z,4.73
2022-10-04T17:30:21.775Z,5.43
2022-10-04T17:33:21.787Z,5.60
2022-10-04T17:36:30.969Z,5.30
2022-10-04T17:39:12.343Z,5.70
2022-10-04T17:41:58.071Z,6.70
2022-10-04T17:44:57.647Z,6.87
2022-10-04T17:47:49.850Z,7.20
2022-10-04T17:50:41.034Z,6.87
2022-10-04T17:53:37.454Z,7.13
2022-10-04T17:56:11.541Z,7.77
2022-10-04T17:58:45.605Z,7.57
2022-10-04T18:01:18.655Z,6.57
2022-10-04T18:03:52.372Z,7.63
2022-10-04T18:06:29.898Z,7.40
2022-10-04T18:09:02.924Z,7.07
2022-10-04T18:11:43.547Z,7.30
2022-10-04T18:14:20.662Z,7.43
2022-10-04T18:16:52.493Z,7.80
2022-10-04T18:19:35.961Z,8.23
2022-10-04T18:22:12.503Z,6.83
2022-10-04T18:24:40.258Z,8.13
2022-10-04T18:27:19.460Z,7.67
2022-10-04T18:30:03.988Z,7.80
2022-10-04T18:32:34.915Z,8.63
2022-10-04T18:35:21.743Z,7.70
2022-10-04T18:37:50.734Z,7.60
2022-10-04T18:40:20.700Z,7.83
2022-10-04T18:42:55.251Z,8.17
2022-10-04T18:45:26.483Z,8.73
2022-10-04T18:47:55.757Z,8.63
2022-10-04T18:50:30.338Z,10.00
2022-10-04T18:53:32.403Z,8.93
2022-10-04T18:56:01.827Z,9.33
2022-10-04T18:58:58.998Z,11.07
2022-10-04T19:01:58.035Z,10.63
2022-10-04T19:04:36.887Z,10.73
2022-10-04T19:07:10.223Z,11.90
2022-10-04T19:09:56.678Z,12.63
2022-10-04T19:12:29.424Z,13.53
2022-10-04T19:15:08.793Z,13.27
2022-10-04T19:17:43.143Z,13.27
2022-10-04T19:20:18.968Z,11.93
2022-10-04T19:22:54.509Z,11.90
2022-10-04T19:25:32.586Z,10.57
2022-10-04T19:28:05.517Z,11.00
2022-10-04T19:30:48.273Z,11.70
2022-10-04T19:33:20.409Z,9.93
2022-10-04T19:36:05.883Z,10.27
2022-10-04T19:38:52.353Z,10.97
2022-10-04T19:41:33.629Z,10.93
2022-10-04T19:44:12.295Z,11.03
2022-10-04T19:46:45.147Z,11.33
2022-10-04T19:49:21.542Z,12.30
2022-10-04T19:51:54.459Z,11.97
2022-10-04T19:54:29.314Z,12.07
2022-10-04T19:56:59.026Z,12.40
2022-10-04T19:59:36.452Z,12.30
2022-10-04T20:02:10.427Z,12.10
2022-10-04T20:04:43.516Z,11.20
2022-10-04T20:07:22.403Z,13.20
2022-10-04T20:10:07.393Z,13.00
2022-10-04T20:12:37.039Z,12.60
2022-10-04T20:15:27.524Z,12.63
2022-10-04T20:17:58.094Z,13.30
2022-10-04T20:21:03.358Z,11.30
2022-10-04T20:23:50.573Z,11.63
2022-10-04T20:26:53.812Z,12.30
2022-10-04T20:30:04.541Z,11.80
2022-10-04T20:32:59.404Z,11.60
2022-10-04T20:36:08.265Z,12.30
2022-10-04T20:38:59.396Z,11.40
2022-10-04T20:42:24.012Z,12.47
2022-10-04T20:44:57.335Z,11.97
2022-10-04T20:47:40.229Z,12.30
2022-10-04T20:50:16.440Z,13.23
2022-10-04T20:52:47.212Z,12.63
2022-10-04T20:55:27.120Z,12.03
2022-10-04T20:57:57.080Z,11.47
2022-10-04T21:00:26.885Z,12.20
2022-10-04T21:03:15.458Z,11.83
2022-10-04T21:05:48.738Z,11.00
2022-10-04T21:08:25.060Z,12.10
2022-10-04T21:11:21.354Z,11.63
2022-10-04T21:13:54.541Z,11.93
2022-10-04T21:16:39.348Z,11.47
2022-10-04T21:19:44.084Z,12.37
2022-10-04T21:22:34.103Z,12.03
2022-10-04T21:25:03.117Z,11.23
2022-10-04T21:27:32.638Z,11.90
2022-10-04T21:30:01.568Z,11.27
2022-10-04T21:32:34.327Z,12.33
2022-10-04T21:35:03.517Z,12.20
2022-10-04T21:37:32.832Z,11.10
2022-10-04T21:40:00.449Z,12.13
2022-10-04T21:42:28.054Z,10.63
2022-10-04T21:44:55.629Z,11.27
2022-10-04T21:47:23.288Z,12.20
2022-10-04T21:49:51.762Z,11.10
2022-10-04T21:52:19.407Z,10.07
2022-10-04T21:54:48.436Z,11.13
2022-10-04T21:57:16.023Z,11.10
2022-10-04T21:59:43.624Z,11.43
2022-10-04T22:02:11.269Z,11.03
2022-10-04T22:04:40.076Z,11.40
2022-10-04T22:07:07.659Z,11.03
2022-10-04T22:09:36.004Z,11.03
2022-10-04T22:12:05.245Z,10.13
2022-10-04T22:14:32.868Z,11.43
2022-10-04T22:17:00.602Z,11.60
2022-10-04T22:19:28.201Z,12.17
2022-10-04T22:21:55.819Z,12.17
2022-10-04T22:24:23.688Z,10.53
2022-10-04T22:26:51.503Z,11.53
2022-10-04T22:29:20.778Z,12.27
2022-10-04T22:31:51.349Z,12.30
2022-10-04T22:34:22.529Z,11.07
2022-10-04T22:36:51.944Z,12.00
2022-10-04T22:39:20.886Z,11.93
2022-10-04T22:41:53.176Z,11.27
2022-10-04T22:44:24.339Z,11.73
2022-10-04T22:46:54.177Z,11.57
2022-10-04T22:49:24.670Z,12.27
2022-10-04T22:51:54.623Z,12.33
2022-10-04T22:54:25.170Z,12.17
2022-10-04T22:56:54.277Z,11.77
2022-10-04T22:59:27.971Z,10.93
2022-10-04T23:01:55.679Z,10.87
2022-10-04T23:04:25.832Z,11.37
2022-10-04T23:06:53.981Z,12.17
2022-10-04T23:09:22.025Z,10.40
2022-10-04T23:11:49.954Z,10.37
2022-10-04T23:14:17.547Z,10.53
2022-10-04T23:16:47.347Z,10.03
2022-10-04T23:19:18.669Z,9.80
2022-10-04T23:21:47.534Z,9.57
2022-10-04T23:24:17.418Z,9.13
2022-10-04T23:26:48.736Z,9.43
2022-10-04T23:29:21.999Z,10.00
2022-10-04T23:31:52.625Z,10.30
2022-10-04T23:34:24.846Z,10.13
2022-10-04T23:36:52.734Z,10.10
2022-10-04T23:39:25.845Z,9.63
2022-10-04T23:41:54.972Z,9.30
2022-10-04T23:44:24.727Z,10.87
2022-10-04T23:46:53.641Z,10.47
2022-10-04T23:49:22.574Z,10.30
2022-10-04T23:51:55.805Z,9.67
2022-10-04T23:54:24.473Z,10.13
2022-10-04T23:56:52.459Z,9.93
2022-10-04T23:59:24.606Z,10.10
